Time;durP1;ratioP1;P1;durP2;ratioP2;P2;SDS_P1;SDS_P2;PMS_P1;PMS_P2;Temp;Humidity;BMP_temperature;BMP_pressure;BME280_temperature;BME280_humidity;BME280_pressure;Samples;Min_cycle;Max_cycle;Signal;HPM_P1;HPM_P2
2021/12/01 00:01:13;;;;;;;1.73;0.87;;;6.20;99.90;;;;;;5054535;28;20440;-89
2021/12/01 00:03:41;;;;;;;2.37;1.47;;;6.20;99.90;;;;;;5045450;28;20457;-90
2021/12/01 00:06:09;;;;;;;1.17;1.07;;;6.20;99.90;;;;;;5046417;28;20452;-89
2021/12/01 00:08:35;;;;;;;1.90;1.00;;;6.20;99.90;;;;;;5050931;28;20453;-88
2021/12/01 00:11:03;;;;;;;1.10;0.97;;;6.10;99.90;;;;;;5033391;28;20438;-91
2021/12/01 00:13:32;;;;;;;1.33;1.23;;;6.10;99.90;;;;;;5041042;28;20441;-89
2021/12/01 00:15:59;;;;;;;0.80;0.80;;;6.10;99.90;;;;;;5047573;28;20465;-89
2021/12/01 00:18:28;;;;;;;1.33;1.00;;;6.10;99.90;;;;;;5047529;28;20445;-90
2021/12/01 00:20:55;;;;;;;1.17;1.00;;;6.00;99.90;;;;;;5037387;28;20458;-90
2021/12/01 00:23:22;;;;;;;1.30;0.90;;;5.90;99.90;;;;;;5034202;28;20477;-90
2021/12/01 00:25:49;;;;;;;1.17;0.90;;;5.90;99.90;;;;;;5057443;28;20457;-88
2021/12/01 00:28:16;;;;;;;1.30;0.93;;;5.80;99.90;;;;;;5057529;28;20440;-88
2021/12/01 00:30:43;;;;;;;1.13;1.00;;;5.80;99.90;;;;;;5027686;28;20438;-90
2021/12/01 00:33:12;;;;;;;1.30;1.13;;;5.70;99.90;;;;;;5041040;28;20834;-90
2021/12/01 00:35:40;;;;;;;1.90;1.20;;;5.70;99.90;;;;;;5050279;28;20464;-91
2021/12/01 00:38:07;;;;;;;1.60;1.37;;;5.70;99.90;;;;;;5031959;28;20450;-90
2021/12/01 00:40:34;;;;;;;1.23;1.10;;;5.70;99.90;;;;;;5025678;28;20457;-91
2021/12/01 00:43:01;;;;;;;1.57;1.07;;;5.60;99.90;;;;;;5035426;28;20551;-90
2021/12/01 00:45:29;;;;;;;1.30;0.90;;;5.60;99.90;;;;;;5050682;28;20464;-90
2021/12/01 00:47:56;;;;;;;1.10;0.83;;;5.60;99.90;;;;;;5043422;28;20453;-90
2021/12/01 00:50:27;;;;;;;1.97;1.00;;;5.60;99.90;;;;;;5054651;28;20439;-90
2021/12/01 00:52:59;;;;;;;0.80;0.77;;;5.50;99.90;;;;;;5038453;28;20501;-90
2021/12/01 00:55:26;;;;;;;1.40;1.30;;;5.50;99.90;;;;;;5027976;28;20501;-89
2021/12/01 00:57:53;;;;;;;1.43;1.00;;;5.50;99.90;;;;;;5029557;28;20501;-88
2021/12/01 01:00:22;;;;;;;1.13;0.90;;;5.50;99.90;;;;;;5037163;28;20487;-90
2021/12/01 01:02:49;;;;;;;1.00;0.80;;;5.50;99.90;;;;;;5036829;28;20993;-90
2021/12/01 01:05:16;;;;;;;0.87;0.80;;;5.50;99.90;;;;;;5054751;28;20445;-90
2021/12/01 01:07:43;;;;;;;2.90;1.23;;;5.50;99.90;;;;;;5030741;28;20453;-90
2021/12/01 01:10:29;;;;;;;1.30;0.80;;;5.50;99.90;;;;;;5020903;28;20480;-92
2021/12/01 01:18:29;;;;;;;1.00;0.70;;;5.50;99.90;;;;;;5024039;28;20440;-89
2021/12/01 01:20:56;;;;;;;4.40;2.67;;;5.50;99.90;;;;;;5019925;28;20453;-91
2021/12/01 01:23:24;;;;;;;6.20;2.90;;;5.60;99.90;;;;;;5039764;28;20488;-90
2021/12/01 01:25:52;;;;;;;4.30;2.37;;;5.60;99.90;;;;;;5041602;28;20452;-91
2021/12/01 01:28:19;;;;;;;3.17;1.90;;;5.60;99.90;;;;;;5051351;28;20452;-91
2021/12/01 01:30:48;;;;;;;6.23;3.40;;;5.60;99.90;;;;;;5058665;28;20435;-91
2021/12/01 01:33:14;;;;;;;1.77;1.33;;;5.60;99.90;;;;;;5056218;28;20471;-90
2021/12/01 01:35:41;;;;;;;3.17;2.30;;;5.60;99.90;;;;;;5039811;28;20441;-91
2021/12/01 01:38:08;;;;;;;1.50;1.10;;;5.60;99.90;;;;;;5022771;28;20850;-91
2021/12/01 01:40:37;;;;;;;2.87;1.70;;;5.60;99.90;;;;;;5019214;28;20457;-91
2021/12/01 01:43:05;;;;;;;1.20;0.97;;;5.70;99.90;;;;;;5033532;28;20571;-92
2021/12/01 01:45:35;;;;;;;1.03;0.93;;;5.70;99.90;;;;;;5056623;28;20438;-88
2021/12/01 01:48:03;;;;;;;1.27;1.00;;;5.70;99.90;;;;;;5033300;28;20473;-92
2021/12/01 01:53:55;;;;;;;1.50;1.37;;;5.70;99.90;;;;;;5155171;22;20553;-90
2021/12/01 01:56:22;;;;;;;1.23;0.90;;;5.80;99.90;;;;;;5073043;28;20539;-87
2021/12/01 01:58:53;;;;;;;2.20;1.40;;;5.80;99.90;;;;;;5074270;28;20451;-90
2021/12/01 02:01:36;;;;;;;1.40;1.30;;;5.80;99.90;;;;;;5078187;28;20443;-88
2021/12/01 02:04:10;;;;;;;2.60;1.70;;;5.80;99.90;;;;;;5077262;28;20440;-88
2021/12/01 02:06:37;;;;;;;1.60;1.17;;;5.80;99.90;;;;;;5065491;28;20481;-91
2021/12/01 02:09:10;;;;;;;1.50;1.20;;;5.80;99.90;;;;;;5061848;28;20445;-91
2021/12/01 02:11:44;;;;;;;2.73;1.60;;;5.80;99.90;;;;;;5061233;28;20424;-91
2021/12/01 02:14:16;;;;;;;2.00;1.60;;;5.90;99.90;;;;;;5058623;28;20479;-90
2021/12/01 02:16:45;;;;;;;1.77;1.30;;;5.90;99.90;;;;;;5057946;28;20559;-91
2021/12/01 02:19:12;;;;;;;1.27;1.17;;;5.90;99.90;;;;;;5063500;28;20469;-88
2021/12/01 02:21:41;;;;;;;1.40;1.20;;;5.90;99.90;;;;;;5060818;28;20446;-89
2021/12/01 02:24:11;;;;;;;1.33;1.23;;;5.90;99.90;;;;;;5049138;28;20464;-88
2021/12/01 02:26:40;;;;;;;1.47;1.37;;;5.90;99.90;;;;;;5056311;28;20437;-90
2021/12/01 02:29:11;;;;;;;1.50;1.40;;;6.00;99.90;;;;;;5062633;28;20436;-88
2021/12/01 02:31:39;;;;;;;1.57;1.47;;;5.90;99.90;;;;;;5059987;28;20465;-89
2021/12/01 02:34:11;;;;;;;1.83;1.40;;;6.00;99.90;;;;;;5051849;28;20496;-89
2021/12/01 02:36:38;;;;;;;1.87;1.57;;;6.00;99.90;;;;;;5051611;28;20551;-89
2021/12/01 02:39:11;;;;;;;2.30;1.43;;;6.00;99.90;;;;;;5046050;28;20464;-89
2021/12/01 02:41:39;;;;;;;1.67;1.07;;;6.00;99.90;;;;;;5048995;28;20456;-89
2021/12/01 02:44:07;;;;;;;2.60;1.30;;;6.10;99.90;;;;;;5047027;28;20981;-90
2021/12/01 02:46:35;;;;;;;1.50;1.27;;;6.10;99.90;;;;;;5063747;28;20486;-88
2021/12/01 02:49:02;;;;;;;1.90;1.30;;;6.10;99.90;;;;;;5060416;28;20449;-89
2021/12/01 02:51:32;;;;;;;1.30;1.10;;;6.10;99.90;;;;;;5055369;28;20467;-89
2021/12/01 02:53:59;;;;;;;1.73;1.40;;;6.10;99.90;;;;;;5047784;28;20476;-89
2021/12/01 02:56:31;;;;;;;1.73;1.37;;;6.10;99.90;;;;;;5049295;28;20988;-90
2021/12/01 02:59:01;;;;;;;1.20;1.10;;;6.20;99.90;;;;;;5047037;28;20439;-88
2021/12/01 03:01:28;;;;;;;1.30;1.20;;;6.20;99.90;;;;;;5048338;28;20452;-89
2021/12/01 03:03:57;;;;;;;2.33;1.37;;;6.20;99.90;;;;;;5045186;28;20472;-89
2021/12/01 03:06:26;;;;;;;1.33;1.23;;;6.20;99.90;;;;;;5046746;28;20444;-90
2021/12/01 03:08:53;;;;;;;1.60;1.50;;;6.30;99.90;;;;;;5047627;28;20444;-89
2021/12/01 03:11:20;;;;;;;0.90;0.80;;;6.30;99.90;;;;;;5065880;28;20457;-89
2021/12/01 03:13:48;;;;;;;2.10;1.37;;;6.30;99.90;;;;;;5048730;28;21058;-89
2021/12/01 03:16:15;;;;;;;1.57;1.07;;;6.30;99.90;;;;;;5046790;28;20447;-89
2021/12/01 03:18:43;;;;;;;1.40;1.30;;;6.30;99.90;;;;;;5049488;28;20452;-90
2021/12/01 03:21:11;;;;;;;1.60;1.10;;;6.30;99.90;;;;;;5036527;28;20949;-90
2021/12/01 03:23:38;;;;;;;1.40;1.13;;;6.30;99.90;;;;;;5057809;28;20437;-89
2021/12/01 03:26:11;;;;;;;1.10;0.90;;;6.40;99.90;;;;;;5057253;28;20439;-90
2021/12/01 03:28:38;;;;;;;2.10;1.10;;;6.40;99.90;;;;;;5055568;28;20514;-90
2021/12/01 03:31:09;;;;;;;1.13;1.00;;;6.40;99.90;;;;;;5044522;28;21010;-90
2021/12/01 03:33:37;;;;;;;2.23;1.50;;;6.40;99.90;;;;;;5044945;28;20600;-90
2021/12/01 03:36:07;;;;;;;5.13;1.50;;;6.40;99.90;;;;;;5042539;28;20441;-90
2021/12/01 03:38:34;;;;;;;1.73;1.20;;;6.50;99.90;;;;;;5043708;28;20437;-92
2021/12/01 03:41:01;;;;;;;3.43;1.43;;;6.50;99.90;;;;;;5042607;28;20523;-90
2021/12/01 03:43:28;;;;;;;3.57;1.47;;;6.50;99.90;;;;;;5055824;28;20472;-88
2021/12/01 03:45:58;;;;;;;2.87;1.10;;;6.50;99.90;;;;;;5063012;28;20432;-90
2021/12/01 03:48:27;;;;;;;1.50;1.10;;;6.50;99.90;;;;;;5058930;28;20437;-88
2021/12/01 03:50:55;;;;;;;1.83;1.47;;;6.60;99.90;;;;;;5047588;28;20442;-91
2021/12/01 03:53:23;;;;;;;1.80;1.20;;;6.60;99.90;;;;;;5045209;28;20480;-91
2021/12/01 03:55:50;;;;;;;1.97;1.30;;;6.60;99.90;;;;;;5043779;28;20440;-91
2021/12/01 03:58:18;;;;;;;3.00;1.70;;;6.60;99.90;;;;;;5064786;28;20468;-91
2021/12/01 04:00:45;;;;;;;1.77;0.97;;;6.60;99.90;;;;;;5042773;28;20451;-90
2021/12/01 04:03:12;;;;;;;1.20;0.97;;;6.60;99.90;;;;;;5043743;28;20471;-90
2021/12/01 04:05:40;;;;;;;3.33;1.20;;;6.60;99.90;;;;;;5041129;28;20436;-91
2021/12/01 04:08:11;;;;;;;2.47;1.27;;;6.60;99.90;;;;;;5044545;28;20823;-91
2021/12/01 04:10:38;;;;;;;1.27;1.13;;;6.60;99.90;;;;;;5043476;28;20440;-91
2021/12/01 04:13:05;;;;;;;1.50;1.40;;;6.60;99.90;;;;;;5044957;28;20535;-90
2021/12/01 04:15:32;;;;;;;1.50;1.17;;;6.60;99.90;;;;;;5058338;28;20425;-88
2021/12/01 04:17:58;;;;;;;1.67;1.10;;;6.60;99.90;;;;;;5049578;28;20475;-90
2021/12/01 04:20:25;;;;;;;3.10;2.10;;;6.60;99.90;;;;;;5042504;28;20464;-89
2021/12/01 04:22:53;;;;;;;1.40;1.13;;;6.60;99.90;;;;;;5047531;28;20471;-91
2021/12/01 04:25:21;;;;;;;1.93;1.30;;;6.60;99.90;;;;;;5044771;28;20449;-91
2021/12/01 04:27:48;;;;;;;1.30;1.07;;;6.60;99.90;;;;;;5042466;28;20437;-90
2021/12/01 04:30:19;;;;;;;1.87;1.77;;;6.70;99.90;;;;;;5056487;28;20420;-88
2021/12/01 04:32:46;;;;;;;1.73;1.30;;;6.70;99.90;;;;;;5064602;28;20460;-91
2021/12/01 04:35:15;;;;;;;1.50;1.20;;;6.70;99.90;;;;;;5057726;28;20979;-90
2021/12/01 04:37:42;;;;;;;2.27;1.23;;;6.80;99.90;;;;;;5062528;28;20476;-89
2021/12/01 04:40:13;;;;;;;1.97;1.70;;;6.80;99.90;;;;;;5067508;28;20446;-89
2021/12/01 04:42:40;;;;;;;1.70;1.50;;;6.80;99.90;;;;;;5059437;28;20468;-91
2021/12/01 04:45:14;;;;;;;1.87;1.33;;;6.90;99.90;;;;;;5046183;28;20465;-91
2021/12/01 04:47:44;;;;;;;1.80;1.60;;;6.80;99.90;;;;;;5045142;28;20441;-90
2021/12/01 04:50:16;;;;;;;2.53;1.87;;;6.90;99.90;;;;;;5043672;28;20517;-91
2021/12/01 04:52:46;;;;;;;2.13;1.53;;;6.90;99.90;;;;;;5044041;28;20547;-90
2021/12/01 04:55:29;;;;;;;2.83;1.57;;;6.90;99.90;;;;;;5043198;28;20454;-91
2021/12/01 04:57:55;;;;;;;2.80;1.47;;;6.90;99.90;;;;;;5047155;28;20476;-90
2021/12/01 05:00:26;;;;;;;2.53;1.70;;;6.90;99.90;;;;;;5046265;28;20452;-91
2021/12/01 05:02:54;;;;;;;3.00;1.90;;;6.90;99.90;;;;;;5046354;28;20464;-91
2021/12/01 05:05:21;;;;;;;1.37;1.27;;;7.00;99.90;;;;;;5046284;28;20515;-90
2021/12/01 05:07:47;;;;;;;3.23;3.00;;;7.00;99.90;;;;;;5046050;28;20843;-89
2021/12/01 05:10:14;;;;;;;1.40;1.20;;;7.00;99.90;;;;;;5046231;28;20463;-90
2021/12/01 05:12:42;;;;;;;2.30;1.10;;;7.00;99.90;;;;;;5044833;28;20483;-89
2021/12/01 05:15:10;;;;;;;1.97;1.73;;;7.00;99.90;;;;;;5061187;28;20429;-91
2021/12/01 05:17:37;;;;;;;3.17;1.73;;;7.00;99.90;;;;;;5058783;28;20559;-91
2021/12/01 05:20:07;;;;;;;2.40;1.33;;;7.00;99.90;;;;;;5045861;28;20449;-90
2021/12/01 05:22:35;;;;;;;1.67;1.57;;;7.00;99.90;;;;;;5044863;28;20481;-91
2021/12/01 05:25:02;;;;;;;2.73;1.67;;;7.00;99.90;;;;;;5047328;28;20961;-90
2021/12/01 05:27:29;;;;;;;5.20;1.80;;;7.00;99.90;;;;;;5066382;28;20428;-89
2021/12/01 05:29:57;;;;;;;2.63;2.43;;;7.00;99.90;;;;;;5063322;28;20847;-88
2021/12/01 05:32:25;;;;;;;2.40;1.43;;;7.00;99.90;;;;;;5055796;28;20425;-88
2021/12/01 05:34:52;;;;;;;1.93;1.40;;;7.00;99.90;;;;;;5062782;28;20542;-89
2021/12/01 05:37:18;;;;;;;1.50;1.40;;;7.00;99.90;;;;;;5054382;28;20473;-89
2021/12/01 05:39:45;;;;;;;9.73;1.30;;;7.00;99.90;;;;;;5056215;28;20449;-90
2021/12/01 05:42:14;;;;;;;3.80;1.43;;;7.00;99.90;;;;;;5053212;28;20468;-90
2021/12/01 05:44:42;;;;;;;3.43;1.60;;;7.00;99.90;;;;;;5053237;28;20500;-92
2021/12/01 05:47:10;;;;;;;3.10;1.40;;;7.10;99.90;;;;;;5050393;28;20475;-90
2021/12/01 05:49:41;;;;;;;1.97;1.23;;;7.10;99.90;;;;;;5053842;28;20447;-89
2021/12/01 05:52:09;;;;;;;1.90;0.80;;;7.20;99.90;;;;;;5047657;28;20455;-89
2021/12/01 05:54:36;;;;;;;0.80;0.80;;;7.30;99.90;;;;;;5049932;28;20476;-90
2021/12/01 05:57:03;;;;;;;1.10;0.60;;;7.40;99.90;;;;;;5054148;28;20474;-87
2021/12/01 05:59:30;;;;;;;0.97;0.80;;;7.40;99.90;;;;;;5068233;28;20426;-86
2021/12/01 06:01:57;;;;;;;1.40;0.90;;;7.50;99.90;;;;;;5056833;28;20439;-89
2021/12/01 06:04:25;;;;;;;1.00;0.77;;;7.50;99.90;;;;;;5048405;28;20559;-90
2021/12/01 06:06:52;;;;;;;0.83;0.70;;;7.50;99.90;;;;;;5048647;28;20449;-89
2021/12/01 06:09:19;;;;;;;1.73;0.80;;;7.50;99.90;;;;;;5049111;28;20452;-88
2021/12/01 06:11:47;;;;;;;0.80;0.70;;;7.60;99.90;;;;;;5071991;28;20444;-88
2021/12/01 06:14:15;;;;;;;0.90;0.70;;;7.60;99.90;;;;;;5074016;28;20461;-88
2021/12/01 06:16:43;;;;;;;1.03;0.70;;;7.60;99.90;;;;;;5078124;28;20467;-88
2021/12/01 06:19:09;;;;;;;1.47;0.70;;;7.60;99.90;;;;;;5066673;28;20469;-89
2021/12/01 06:21:42;;;;;;;1.47;1.00;;;7.70;99.90;;;;;;5056745;28;20448;-89
2021/12/01 06:24:09;;;;;;;1.10;0.70;;;7.70;99.90;;;;;;5064834;28;20538;-90
2021/12/01 06:33:10;;;;;;;1.20;0.60;;;7.70;99.90;;;;;;4938698;28;20454;-85
2021/12/01 06:35:37;;;;;;;1.07;0.90;;;7.70;99.90;;;;;;4997230;28;20475;-87
2021/12/01 06:38:06;;;;;;;1.33;0.80;;;7.80;99.90;;;;;;5006625;28;20488;-89
2021/12/01 06:40:33;;;;;;;1.03;0.77;;;7.80;99.90;;;;;;5059928;28;20527;-88
2021/12/01 06:43:00;;;;;;;20.50;18.67;;;7.80;99.90;;;;;;5058621;28;20480;-89
2021/12/01 06:45:27;;;;;;;1.10;0.73;;;7.80;99.90;;;;;;5058902;28;20447;-89
2021/12/01 06:47:54;;;;;;;1.20;0.70;;;7.90;99.90;;;;;;5064080;28;20440;-87
2021/12/01 06:50:21;;;;;;;1.07;0.90;;;7.80;99.90;;;;;;5066852;28;20436;-89
2021/12/01 06:52:48;;;;;;;1.43;0.63;;;7.90;99.90;;;;;;5060045;28;20445;-89
2021/12/01 06:55:19;;;;;;;1.00;0.80;;;7.90;99.90;;;;;;5061162;28;20455;-90
2021/12/01 06:57:47;;;;;;;1.20;0.90;;;8.00;99.90;;;;;;5060007;28;20476;-88
2021/12/01 07:00:16;;;;;;;1.00;0.90;;;8.00;99.90;;;;;;5067555;28;20450;-89
2021/12/01 07:02:44;;;;;;;1.20;0.90;;;8.00;99.90;;;;;;5061777;28;20476;-89
2021/12/01 07:05:16;;;;;;;1.70;1.13;;;8.00;99.90;;;;;;5077038;28;20432;-89
2021/12/01 07:07:50;;;;;;;1.77;0.80;;;8.00;99.90;;;;;;5079289;28;20432;-89
2021/12/01 07:10:18;;;;;;;0.90;0.73;;;8.00;99.90;;;;;;5065358;28;21120;-88
2021/12/01 07:12:47;;;;;;;3.90;0.90;;;8.00;99.90;;;;;;5070931;28;20462;-88
2021/12/01 07:15:15;;;;;;;1.90;1.00;;;8.00;99.90;;;;;;5082809;28;20445;-87
2021/12/01 07:17:42;;;;;;;1.10;0.80;;;8.10;99.90;;;;;;5066321;28;20483;-86
2021/12/01 07:20:11;;;;;;;1.43;0.70;;;8.00;99.90;;;;;;5074274;28;20448;-87
2021/12/01 07:22:41;;;;;;;1.83;0.80;;;8.10;99.90;;;;;;5069699;28;20474;-87
2021/12/01 07:25:11;;;;;;;1.10;0.80;;;8.10;99.90;;;;;;5074763;28;20441;-89
2021/12/01 07:27:43;;;;;;;1.70;1.17;;;8.10;99.90;;;;;;5070907;28;21011;-87
2021/12/01 07:30:13;;;;;;;1.17;0.70;;;8.10;99.90;;;;;;5075826;28;20423;-88
2021/12/01 07:32:40;;;;;;;1.00;0.83;;;8.20;99.90;;;;;;5064924;28;20448;-89
2021/12/01 07:35:08;;;;;;;1.20;0.50;;;8.20;99.90;;;;;;5060672;28;20447;-90
2021/12/01 07:37:34;;;;;;;1.33;0.70;;;8.30;99.90;;;;;;5062044;28;20447;-88
2021/12/01 07:40:01;;;;;;;0.80;0.77;;;8.30;99.90;;;;;;5061270;28;20463;-88
2021/12/01 07:42:57;;;;;;;2.20;1.27;;;8.40;99.90;;;;;;5057989;28;20441;-90
2021/12/01 07:45:24;;;;;;;1.97;0.50;;;8.40;99.90;;;;;;5042445;28;20435;-89
2021/12/01 07:47:51;;;;;;;0.70;0.50;;;8.40;99.90;;;;;;5059775;28;20435;-89
2021/12/01 07:50:18;;;;;;;1.47;0.70;;;8.40;99.90;;;;;;5062240;28;20446;-88
2021/12/01 07:52:45;;;;;;;0.60;0.40;;;8.40;99.90;;;;;;5062941;28;20528;-88
2021/12/01 07:55:11;;;;;;;1.07;0.70;;;8.50;99.90;;;;;;5084214;28;20463;-86
2021/12/01 07:57:39;;;;;;;1.43;0.50;;;8.50;99.90;;;;;;5079762;28;20463;-88
2021/12/01 08:00:12;;;;;;;1.57;0.70;;;8.60;99.90;;;;;;5083097;28;20447;-86
2021/12/01 08:02:39;;;;;;;0.90;0.57;;;8.60;99.90;;;;;;5072909;28;20948;-88
2021/12/01 08:05:18;;;;;;;1.40;0.80;;;8.60;99.90;;;;;;5063246;28;20484;-90
2021/12/01 08:07:45;;;;;;;1.33;0.87;;;8.70;99.90;;;;;;5069492;28;20481;-90
2021/12/01 08:10:15;;;;;;;1.63;0.93;;;8.60;99.90;;;;;;5068933;28;20889;-89
2021/12/01 08:12:47;;;;;;;1.93;0.57;;;8.60;99.90;;;;;;5067315;28;20505;-90
2021/12/01 08:15:16;;;;;;;0.80;0.50;;;8.60;99.90;;;;;;5063018;28;20913;-88
2021/12/01 08:17:43;;;;;;;0.80;0.60;;;8.70;99.90;;;;;;5066084;28;20432;-88
2021/12/01 08:20:11;;;;;;;5.80;0.70;;;8.70;99.90;;;;;;5071274;28;20496;-87
2021/12/01 08:22:38;;;;;;;1.50;0.70;;;8.80;99.90;;;;;;5084604;28;20795;-88
2021/12/01 08:25:11;;;;;;;0.90;0.50;;;8.80;99.90;;;;;;5071744;28;20478;-88
2021/12/01 08:30:54;;;;;;;0.60;0.40;;;8.80;99.90;;;;;;5069045;28;20501;-87
2021/12/01 08:33:20;;;;;;;0.97;0.50;;;8.90;99.90;;;;;;5082931;28;20445;-87
2021/12/01 08:35:47;;;;;;;1.57;0.80;;;9.00;99.90;;;;;;5077780;28;20456;-87
2021/12/01 08:38:14;;;;;;;1.17;0.53;;;9.00;99.90;;;;;;5064313;28;20480;-88
2021/12/01 08:40:41;;;;;;;1.53;0.67;;;9.10;99.90;;;;;;5069437;28;20458;-89
2021/12/01 08:43:08;;;;;;;0.87;0.63;;;9.10;99.90;;;;;;5065326;28;20464;-88
2021/12/01 08:45:35;;;;;;;1.30;0.73;;;9.20;99.90;;;;;;5075918;28;20484;-89
2021/12/01 08:48:05;;;;;;;0.80;0.60;;;9.30;99.90;;;;;;5069894;28;20428;-87
2021/12/01 08:50:33;;;;;;;0.80;0.60;;;9.30;99.90;;;;;;5076657;28;20463;-88
2021/12/01 08:53:00;;;;;;;0.50;0.33;;;9.30;99.90;;;;;;5059772;28;21015;-88
2021/12/01 08:55:28;;;;;;;1.20;0.67;;;9.30;99.90;;;;;;5057687;28;20452;-87
2021/12/01 08:57:54;;;;;;;1.10;0.60;;;9.30;99.90;;;;;;5072789;28;20447;-86
2021/12/01 09:00:22;;;;;;;2.70;1.00;;;9.40;99.90;;;;;;5079281;28;20516;-88
2021/12/01 09:02:49;;;;;;;1.80;0.80;;;9.50;99.90;;;;;;5079191;28;20466;-88
2021/12/01 09:05:18;;;;;;;2.40;0.60;;;9.50;99.90;;;;;;5078371;28;20567;-87
2021/12/01 09:07:45;;;;;;;3.90;1.60;;;9.60;99.90;;;;;;5062365;28;20463;-89
2021/12/01 09:10:12;;;;;;;4.53;2.80;;;9.90;99.90;;;;;;5060067;28;20531;-88
2021/12/01 09:12:41;;;;;;;9.90;4.87;;;10.00;99.90;;;;;;5060438;28;20465;-87
2021/12/01 09:15:09;;;;;;;7.70;4.60;;;10.10;99.90;;;;;;5052546;28;20448;-87
2021/12/01 09:17:35;;;;;;;8.83;4.20;;;10.20;99.90;;;;;;5051258;28;20467;-88
2021/12/01 09:20:03;;;;;;;4.90;2.80;;;10.30;99.90;;;;;;5066273;28;20471;-87
2021/12/01 09:22:33;;;;;;;3.33;0.90;;;10.40;99.90;;;;;;5067488;28;20463;-88
2021/12/01 09:25:00;;;;;;;1.33;0.50;;;10.50;99.90;;;;;;5062051;28;20436;-88
2021/12/01 09:27:31;;;;;;;1.03;0.50;;;10.40;99.90;;;;;;5058133;28;20449;-87
2021/12/01 09:29:57;;;;;;;2.40;0.60;;;10.40;99.90;;;;;;5078080;28;20439;-87
2021/12/01 09:32:24;;;;;;;3.43;0.70;;;10.40;99.90;;;;;;5073655;28;20441;-87
2021/12/01 09:34:51;;;;;;;1.67;1.00;;;10.20;99.90;;;;;;5065431;28;20903;-87
2021/12/01 09:37:18;;;;;;;2.30;0.70;;;10.20;99.90;;;;;;5073848;28;20460;-87
2021/12/01 09:39:46;;;;;;;1.43;0.50;;;10.20;99.90;;;;;;5059791;28;20559;-87
2021/12/01 09:42:13;;;;;;;1.00;0.70;;;10.20;99.90;;;;;;5072912;28;20441;-88
2021/12/01 09:44:40;;;;;;;0.80;0.43;;;10.20;99.90;;;;;;5066464;28;20472;-86
2021/12/01 09:47:07;;;;;;;1.30;0.70;;;10.20;99.90;;;;;;5072313;28;20512;-88
2021/12/01 09:49:34;;;;;;;0.97;0.40;;;10.20;99.90;;;;;;5058174;28;20463;-88
2021/12/01 09:52:02;;;;;;;0.67;0.50;;;10.20;99.90;;;;;;5069036;28;20429;-88
2021/12/01 09:54:28;;;;;;;2.90;0.50;;;10.20;99.90;;;;;;5057328;28;20472;-88
2021/12/01 09:56:57;;;;;;;0.60;0.50;;;10.20;99.90;;;;;;5058923;28;20444;-88
2021/12/01 09:59:23;;;;;;;0.80;0.50;;;10.20;99.90;;;;;;5059452;28;20476;-88
2021/12/01 10:01:50;;;;;;;0.70;0.50;;;10.30;99.90;;;;;;5058028;28;20533;-87
2021/12/01 10:04:17;;;;;;;0.90;0.60;;;10.30;99.90;;;;;;5064456;28;20819;-88
2021/12/01 10:06:44;;;;;;;1.40;0.63;;;10.30;99.90;;;;;;5060535;28;20444;-86
2021/12/01 10:09:13;;;;;;;1.80;0.60;;;10.40;99.90;;;;;;5061023;28;20436;-88
2021/12/01 10:11:41;;;;;;;0.60;0.40;;;10.40;99.90;;;;;;5057391;28;20463;-88
2021/12/01 10:14:16;;;;;;;1.00;0.80;;;10.50;99.90;;;;;;5063646;28;20472;-88
2021/12/01 10:16:44;;;;;;;1.30;0.90;;;10.70;99.90;;;;;;5069250;28;20428;-88
2021/12/01 10:19:13;;;;;;;1.20;0.70;;;10.70;99.90;;;;;;5058288;28;20476;-87
2021/12/01 10:21:41;;;;;;;0.70;0.50;;;10.80;99.90;;;;;;5051126;28;20455;-89
2021/12/01 10:24:10;;;;;;;0.97;0.50;;;10.90;99.90;;;;;;5046726;28;20486;-88
2021/12/01 10:26:40;;;;;;;4.47;2.07;;;10.80;99.90;;;;;;5056721;28;20439;-88
2021/12/01 10:29:11;;;;;;;0.80;0.73;;;10.70;99.90;;;;;;5050483;28;20441;-87
2021/12/01 10:31:41;;;;;;;4.07;0.93;;;10.70;99.90;;;;;;5040233;28;20968;-87
2021/12/01 10:34:23;;;;;;;0.63;0.50;;;10.90;99.90;;;;;;5049369;28;20462;-87
2021/12/01 10:36:51;;;;;;;1.90;1.10;;;11.20;99.90;;;;;;5047669;28;20453;-87
2021/12/01 10:39:18;;;;;;;0.93;0.80;;;11.60;99.90;;;;;;5038760;28;20473;-87
2021/12/01 10:41:45;;;;;;;0.60;0.50;;;11.90;99.90;;;;;;5058940;28;20438;-85
2021/12/01 10:44:15;;;;;;;0.70;0.50;;;12.10;99.90;;;;;;5076494;28;20455;-88
2021/12/01 10:46:48;;;;;;;0.80;0.50;;;12.10;99.90;;;;;;5064877;28;20428;-86
2021/12/01 10:49:16;;;;;;;0.80;0.47;;;11.80;99.90;;;;;;5072190;28;20455;-86
2021/12/01 10:51:44;;;;;;;0.93;0.60;;;11.50;99.90;;;;;;5075114;28;20516;-87
2021/12/01 10:54:17;;;;;;;1.00;0.53;;;11.40;99.90;;;;;;5074737;28;20465;-85
2021/12/01 10:56:45;;;;;;;0.80;0.50;;;11.30;99.90;;;;;;5075042;28;20449;-86
2021/12/01 10:59:15;;;;;;;1.87;0.50;;;11.20;99.90;;;;;;5064581;28;20512;-87
2021/12/01 11:01:42;;;;;;;1.37;0.70;;;11.00;99.90;;;;;;5056204;28;20965;-88
2021/12/01 11:04:09;;;;;;;3.80;2.30;;;11.00;99.90;;;;;;5054018;28;20972;-87
2021/12/01 11:06:41;;;;;;;3.30;1.90;;;11.00;99.90;;;;;;5054910;28;20452;-88
2021/12/01 11:09:43;;;;;;;1.87;1.60;;;11.10;99.90;;;;;;5057376;28;20447;-87
2021/12/01 11:15:52;;;;;;;3.40;0.90;;;11.10;99.90;;;;;;4971152;28;20427;-87
2021/12/01 11:18:21;;;;;;;2.97;1.60;;;11.20;99.90;;;;;;5040752;28;20472;-88
2021/12/01 11:20:49;;;;;;;4.10;2.00;;;11.20;99.90;;;;;;5039671;28;20874;-88
2021/12/01 11:23:51;;;;;;;0.60;0.47;;;11.10;99.90;;;;;;5045543;28;20469;-86
2021/12/01 11:26:20;;;;;;;0.80;0.70;;;11.10;99.90;;;;;;5045302;28;20437;-87
2021/12/01 11:28:50;;;;;;;1.20;0.53;;;11.00;99.90;;;;;;5088585;28;20435;-89
2021/12/01 11:31:21;;;;;;;0.80;0.60;;;11.10;99.90;;;;;;5078944;28;20835;-86
2021/12/01 11:33:59;;;;;;;1.13;0.67;;;11.10;99.90;;;;;;5080023;28;20492;-87
2021/12/01 11:36:28;;;;;;;0.70;0.57;;;11.10;99.90;;;;;;5079962;28;20432;-87
2021/12/01 11:38:58;;;;;;;1.33;0.70;;;11.30;99.90;;;;;;5066649;28;20454;-88
2021/12/01 11:41:27;;;;;;;0.70;0.50;;;11.40;99.90;;;;;;5073936;28;20552;-89
2021/12/01 11:46:50;;;;;;;2.63;0.70;;;12.20;99.90;;;;;;5052840;28;20479;-85
2021/12/01 11:49:24;;;;;;;1.70;0.60;;;12.90;99.90;;;;;;5068631;28;20484;-87
2021/12/01 11:55:08;;;;;;;0.67;0.50;;;13.20;99.90;;;;;;5057475;28;20453;-87
2021/12/01 11:58:10;;;;;;;0.70;0.50;;;12.60;99.90;;;;;;5059643;28;20461;-89
2021/12/01 12:01:10;;;;;;;1.37;0.70;;;13.20;99.90;;;;;;5058071;28;20480;-87
2021/12/01 12:03:38;;;;;;;1.17;0.40;;;13.80;99.60;;;;;;5061741;28;20468;-87
2021/12/01 12:06:23;;;;;;;0.73;0.70;;;14.00;98.50;;;;;;5061350;28;20453;-87
2021/12/01 12:08:57;;;;;;;1.53;0.70;;;13.30;99.80;;;;;;5043537;28;20591;-87
2021/12/01 12:11:36;;;;;;;0.57;0.43;;;13.10;99.90;;;;;;5062012;28;20456;-87
2021/12/01 12:14:05;;;;;;;0.77;0.50;;;13.20;99.90;;;;;;5064922;28;20462;-87
2021/12/01 12:16:33;;;;;;;0.70;0.47;;;13.60;99.90;;;;;;5064201;28;20479;-87
2021/12/01 12:19:03;;;;;;;2.30;0.70;;;13.90;99.30;;;;;;5061453;28;20509;-88
2021/12/01 12:21:37;;;;;;;1.47;1.37;;;14.20;99.70;;;;;;5060544;28;20904;-88
2021/12/01 12:24:06;;;;;;;0.60;0.50;;;13.70;99.40;;;;;;5062470;28;20470;-89
2021/12/01 12:26:38;;;;;;;1.10;0.77;;;13.70;98.90;;;;;;5062792;28;20449;-87
2021/12/01 12:29:08;;;;;;;1.00;0.70;;;13.60;99.90;;;;;;5075271;28;20460;-88
2021/12/01 12:31:35;;;;;;;0.90;0.70;;;13.80;99.50;;;;;;5066021;28;20547;-88
2021/12/01 12:34:09;;;;;;;1.67;0.70;;;13.80;99.50;;;;;;5065119;28;20462;-88
2021/12/01 12:36:42;;;;;;;1.00;0.70;;;13.10;99.70;;;;;;5079883;28;20524;-87
2021/12/01 12:39:12;;;;;;;1.93;0.63;;;13.10;99.90;;;;;;5066359;28;20456;-88
2021/12/01 12:42:05;;;;;;;2.33;0.83;;;13.00;99.90;;;;;;5074641;28;20455;-87
2021/12/01 12:44:35;;;;;;;1.87;1.10;;;12.80;99.90;;;;;;5054531;28;20464;-88
2021/12/01 12:47:03;;;;;;;1.10;0.60;;;12.50;99.90;;;;;;5078696;28;20500;-86
2021/12/01 12:49:39;;;;;;;1.80;0.70;;;12.30;99.90;;;;;;5068622;28;20448;-88
2021/12/01 12:52:32;;;;;;;1.23;0.97;;;12.30;99.90;;;;;;5060041;28;20453;-88
2021/12/01 12:55:02;;;;;;;1.10;0.83;;;12.10;99.90;;;;;;5059537;28;20451;-89
2021/12/01 12:57:54;;;;;;;1.47;0.80;;;11.90;99.90;;;;;;5072979;28;20441;-86
2021/12/01 13:00:25;;;;;;;1.13;0.90;;;11.90;99.90;;;;;;5077769;28;20488;-87
2021/12/01 13:02:53;;;;;;;1.33;0.90;;;11.80;99.90;;;;;;5072376;28;20552;-87
2021/12/01 13:05:33;;;;;;;1.60;0.90;;;11.70;99.90;;;;;;5061385;28;20459;-88
2021/12/01 13:08:00;;;;;;;1.10;0.80;;;11.60;99.90;;;;;;5077359;28;20455;-87
2021/12/01 13:10:29;;;;;;;1.70;1.20;;;11.40;99.90;;;;;;5076137;28;20450;-87
2021/12/01 13:13:00;;;;;;;1.27;0.80;;;11.40;99.90;;;;;;5075687;28;20467;-87
2021/12/01 13:15:33;;;;;;;1.10;0.80;;;11.40;99.90;;;;;;5071967;28;20517;-88
2021/12/01 13:18:01;;;;;;;0.90;0.70;;;11.30;99.90;;;;;;5064535;28;20448;-88
2021/12/01 13:20:34;;;;;;;1.30;1.07;;;11.30;99.90;;;;;;5062524;28;20476;-89
2021/12/01 13:23:04;;;;;;;1.53;1.10;;;11.20;99.90;;;;;;5063110;28;20473;-88
2021/12/01 13:25:31;;;;;;;1.07;0.70;;;11.30;99.90;;;;;;5059706;28;20511;-86
2021/12/01 13:28:03;;;;;;;1.43;0.80;;;11.40;99.90;;;;;;5060349;28;20449;-90
2021/12/01 13:30:33;;;;;;;1.40;0.80;;;11.40;99.90;;;;;;5062342;28;20467;-88
2021/12/01 13:33:08;;;;;;;1.83;0.90;;;11.30;99.90;;;;;;5063954;28;20559;-87